LavenderCAM.net
Leatherhead Weather
 
Leatherhead Weather
 
 





Aviation weather for

London Heathrow (EGLL) and London Gatwick (EGKK)



London Heathrow (EGLL) METAR / Surface Actual
London / Heathrow Airport, United Kingdom (EGLL) 51-29N 000-27W 0M
Oct 07, 2022 - 10:20 AM EDT / 2022.10.07 1420 UTC
Wind: from the WSW (240 degrees) at 18 MPH (16 KT):0
Visibility: greater than 7 mile(s):0
Sky conditions: mostly cloudy
Temperature: 64 F (18 C)
Dew Point: 48 F (9 C)
Relative Humidity: 55%
Pressure (altimeter): 30.00 in. Hg (1016 hPa)
ob: EGLL 071420Z AUTO 24016KT 9999 SCT038 BKN045 18/09 Q1016
cycle: 14
London Heathrow (EGLL) TAF / Forecast
2022/10/07 12:11
TAF EGLL 071058Z 0712/0818 23013KT 9999 SCT045 PROB40 
      TEMPO 0712/0719 23016G28KT PROB30 
      TEMPO 0712/0716 8000 SHRA PROB30 
      TEMPO 0716/0719 3000 +SHRA 
      BECMG 0808/0811 29007KT


London Gatwick (EGKK) METAR / Surface Actual
London / Gatwick Airport, United Kingdom (EGKK) 51-09N 000-11W 0M
Oct 07, 2022 - 10:20 AM EDT / 2022.10.07 1420 UTC
Wind: from the SW (220 degrees) at 14 MPH (12 KT) gusting to 25 MPH (22 KT):0
Visibility: greater than 7 mile(s):0
Sky conditions: mostly clear
Temperature: 62 F (17 C)
Dew Point: 50 F (10 C)
Relative Humidity: 63%
Pressure (altimeter): 30.03 in. Hg (1017 hPa)
ob: EGKK 071420Z 22012G22KT 9999 FEW035 17/10 Q1017
cycle: 14
London Gatwick (EGKK) TAF / Forecast
2022/10/07 12:11
TAF EGKK 071053Z 0712/0818 23014KT 9999 SCT025 PROB30 
      TEMPO 0712/0717 23017G27KT 8000 SHRA PROB40 
      TEMPO 0717/0720 23020G30KT 3000 +SHRA 
      BECMG 0718/0721 29005KT PROB30 0804/0807 8000